Airfield :







YOU CAN JOIN US ON...

 
LOGIN :

Register | Disclaimer

   EN    FR    IT 

 









Legend :    VFR   Marginal VFR   IFR   Intensive IFR   Very Intensive IFR
Visi :
Ceiling :
>= 8 km
>= 3000ft
5 to 8 km
1000 to 3000 ft
1500m to 5 km
500 to 1000 ft
800 to 1500m
200 to 500 ft
< 800m
< 200 ft
Symbols :   Thunderstorms  Fog  Heavy snow  Heavy precipitations  Wind > 20 kt







- Airport Elevation : 83 ft


KBHB - Hancock County-Bar Harbor

CURRENT METAR :
  • 221956Z AUTO 20016KT 10SM CLR 19/16 A2997 RMK AO2 SLP152 T01890156

EXPIRED METARs :
  • 221856Z AUTO 20012KT 10SM CLR 19/16 A3000 RMK AO2 SLP159 T01940156
  • 221756Z AUTO 21011KT 10SM CLR 22/17 A3002 RMK AO2 SLP168 T02220167 10222 20150 58022

TAF KBHB
Valid from the 22 at 18:00 until the 23 at 18:00 UTC


221731Z 2218/2318 20009KT P6SM SCT250
FM230100 22008KT P6SM FEW100
No reported NOTAMs for that airfield.



MET'MAP, your aeronautical weather chart ! - Copyright ORBIFLY December 2007 - Disclaimer

ORBIFLY MET'MAP TEAM :

Programming & Development : Alexandra Zaïnal
Concept & Development : Baudouin d'Aumeries
Co-Development & Prog : Marc-Olivier Méhu
Technical & hardware support : Manuel Goepfert

Contact : metmap@orbifly.com




SOURCES & CREDITS :

   NOAA